sensor_id;sensor_type;location;lat;lon;timestamp;P1;durP1;ratioP1;P2;durP2;ratioP2
4432;SDS011;2229;48.708;9.706;2022-12-07T00:01:07;8.80;;;2.97;;
4432;SDS011;2229;48.708;9.706;2022-12-07T00:03:37;4.03;;;2.07;;
4432;SDS011;2229;48.708;9.706;2022-12-07T00:06:05;5.77;;;2.10;;
4432;SDS011;2229;48.708;9.706;2022-12-07T00:08:34;3.63;;;2.30;;
4432;SDS011;2229;48.708;9.706;2022-12-07T00:11:02;3.23;;;2.93;;
4432;SDS011;2229;48.708;9.706;2022-12-07T00:13:30;3.80;;;2.20;;
4432;SDS011;2229;48.708;9.706;2022-12-07T00:15:59;3.93;;;2.70;;
4432;SDS011;2229;48.708;9.706;2022-12-07T00:18:28;5.90;;;2.20;;
4432;SDS011;2229;48.708;9.706;2022-12-07T00:21:00;4.17;;;2.60;;
4432;SDS011;2229;48.708;9.706;2022-12-07T00:23:27;5.30;;;2.33;;
4432;SDS011;2229;48.708;9.706;2022-12-07T00:25:55;5.53;;;3.00;;
4432;SDS011;2229;48.708;9.706;2022-12-07T00:28:22;4.07;;;2.90;;
4432;SDS011;2229;48.708;9.706;2022-12-07T00:30:49;4.67;;;1.87;;
4432;SDS011;2229;48.708;9.706;2022-12-07T00:33:37;5.53;;;2.60;;
4432;SDS011;2229;48.708;9.706;2022-12-07T00:36:07;6.33;;;3.50;;
4432;SDS011;2229;48.708;9.706;2022-12-07T00:38:36;2.70;;;1.63;;
4432;SDS011;2229;48.708;9.706;2022-12-07T00:41:05;4.40;;;2.60;;
4432;SDS011;2229;48.708;9.706;2022-12-07T00:43:47;3.63;;;2.67;;
4432;SDS011;2229;48.708;9.706;2022-12-07T00:46:15;3.50;;;1.93;;
4432;SDS011;2229;48.708;9.706;2022-12-07T00:48:43;6.10;;;3.37;;
4432;SDS011;2229;48.708;9.706;2022-12-07T00:51:12;4.43;;;2.13;;
4432;SDS011;2229;48.708;9.706;2022-12-07T00:53:46;3.43;;;1.93;;
4432;SDS011;2229;48.708;9.706;2022-12-07T00:56:14;3.37;;;1.80;;
4432;SDS011;2229;48.708;9.706;2022-12-07T00:58:43;2.70;;;1.80;;
4432;SDS011;2229;48.708;9.706;2022-12-07T01:01:10;2.40;;;1.70;;
4432;SDS011;2229;48.708;9.706;2022-12-07T01:03:38;4.03;;;2.33;;
4432;SDS011;2229;48.708;9.706;2022-12-07T01:06:05;4.87;;;1.87;;
4432;SDS011;2229;48.708;9.706;2022-12-07T01:08:34;4.90;;;2.83;;
4432;SDS011;2229;48.708;9.706;2022-12-07T01:11:02;5.37;;;3.00;;
4432;SDS011;2229;48.708;9.706;2022-12-07T01:13:32;3.50;;;2.70;;
4432;SDS011;2229;48.708;9.706;2022-12-07T01:16:00;6.33;;;2.73;;
4432;SDS011;2229;48.708;9.706;2022-12-07T01:18:30;6.70;;;3.03;;
4432;SDS011;2229;48.708;9.706;2022-12-07T01:21:00;5.20;;;2.50;;
4432;SDS011;2229;48.708;9.706;2022-12-07T01:23:27;3.20;;;2.03;;
4432;SDS011;2229;48.708;9.706;2022-12-07T01:25:57;4.37;;;2.73;;
4432;SDS011;2229;48.708;9.706;2022-12-07T01:28:27;4.30;;;2.23;;
4432;SDS011;2229;48.708;9.706;2022-12-07T01:30:55;5.13;;;2.30;;
4432;SDS011;2229;48.708;9.706;2022-12-07T01:33:24;4.93;;;2.80;;
4432;SDS011;2229;48.708;9.706;2022-12-07T01:35:52;2.93;;;2.63;;
4432;SDS011;2229;48.708;9.706;2022-12-07T01:38:19;4.57;;;2.77;;
4432;SDS011;2229;48.708;9.706;2022-12-07T01:40:53;4.17;;;2.50;;
4432;SDS011;2229;48.708;9.706;2022-12-07T01:43:22;5.10;;;2.70;;
4432;SDS011;2229;48.708;9.706;2022-12-07T01:45:52;5.63;;;2.60;;
4432;SDS011;2229;48.708;9.706;2022-12-07T01:48:20;6.10;;;2.87;;
4432;SDS011;2229;48.708;9.706;2022-12-07T01:50:50;4.50;;;2.57;;
4432;SDS011;2229;48.708;9.706;2022-12-07T01:53:21;6.13;;;3.40;;
4432;SDS011;2229;48.708;9.706;2022-12-07T01:55:53;5.63;;;3.03;;
4432;SDS011;2229;48.708;9.706;2022-12-07T01:58:24;4.80;;;2.77;;
4432;SDS011;2229;48.708;9.706;2022-12-07T02:00:52;5.43;;;3.10;;
4432;SDS011;2229;48.708;9.706;2022-12-07T02:03:22;5.23;;;2.73;;
4432;SDS011;2229;48.708;9.706;2022-12-07T02:05:53;6.93;;;4.30;;
4432;SDS011;2229;48.708;9.706;2022-12-07T02:08:21;5.30;;;3.13;;
4432;SDS011;2229;48.708;9.706;2022-12-07T02:10:49;8.67;;;3.33;;
4432;SDS011;2229;48.708;9.706;2022-12-07T02:13:17;6.60;;;3.57;;
4432;SDS011;2229;48.708;9.706;2022-12-07T02:16:04;6.73;;;4.23;;
4432;SDS011;2229;48.708;9.706;2022-12-07T02:18:45;9.03;;;3.00;;
4432;SDS011;2229;48.708;9.706;2022-12-07T02:21:20;8.63;;;3.30;;
4432;SDS011;2229;48.708;9.706;2022-12-07T02:24:00;5.80;;;2.47;;
4432;SDS011;2229;48.708;9.706;2022-12-07T02:30:00;8.03;;;3.10;;
4432;SDS011;2229;48.708;9.706;2022-12-07T02:32:30;5.43;;;3.13;;
4432;SDS011;2229;48.708;9.706;2022-12-07T02:35:09;6.07;;;2.50;;
4432;SDS011;2229;48.708;9.706;2022-12-07T02:37:41;5.87;;;2.57;;
4432;SDS011;2229;48.708;9.706;2022-12-07T02:40:17;8.37;;;4.50;;
4432;SDS011;2229;48.708;9.706;2022-12-07T02:42:47;6.00;;;2.73;;
4432;SDS011;2229;48.708;9.706;2022-12-07T02:45:21;6.40;;;2.90;;
4432;SDS011;2229;48.708;9.706;2022-12-07T02:47:53;7.83;;;3.40;;
4432;SDS011;2229;48.708;9.706;2022-12-07T02:50:25;5.80;;;3.40;;
4432;SDS011;2229;48.708;9.706;2022-12-07T02:52:53;6.13;;;3.53;;
4432;SDS011;2229;48.708;9.706;2022-12-07T02:55:22;7.17;;;3.00;;
4432;SDS011;2229;48.708;9.706;2022-12-07T02:57:59;5.27;;;2.77;;
4432;SDS011;2229;48.708;9.706;2022-12-07T03:00:44;4.43;;;3.07;;
4432;SDS011;2229;48.708;9.706;2022-12-07T03:03:17;6.77;;;3.60;;
4432;SDS011;2229;48.708;9.706;2022-12-07T03:08:44;6.20;;;3.03;;
4432;SDS011;2229;48.708;9.706;2022-12-07T03:11:21;11.90;;;4.70;;
4432;SDS011;2229;48.708;9.706;2022-12-07T03:13:54;10.63;;;3.20;;
4432;SDS011;2229;48.708;9.706;2022-12-07T03:16:28;6.63;;;3.40;;
4432;SDS011;2229;48.708;9.706;2022-12-07T03:19:02;6.67;;;3.77;;
4432;SDS011;2229;48.708;9.706;2022-12-07T03:21:33;5.50;;;2.63;;
4432;SDS011;2229;48.708;9.706;2022-12-07T03:24:06;5.27;;;3.30;;
4432;SDS011;2229;48.708;9.706;2022-12-07T03:26:36;9.23;;;5.10;;
4432;SDS011;2229;48.708;9.706;2022-12-07T03:29:08;7.40;;;3.13;;
4432;SDS011;2229;48.708;9.706;2022-12-07T03:31:41;4.70;;;2.63;;
4432;SDS011;2229;48.708;9.706;2022-12-07T03:34:12;7.77;;;2.70;;
4432;SDS011;2229;48.708;9.706;2022-12-07T03:36:43;8.20;;;4.20;;
4432;SDS011;2229;48.708;9.706;2022-12-07T03:39:17;4.87;;;2.47;;
4432;SDS011;2229;48.708;9.706;2022-12-07T03:41:50;7.70;;;2.80;;
4432;SDS011;2229;48.708;9.706;2022-12-07T03:44:19;7.30;;;3.30;;
4432;SDS011;2229;48.708;9.706;2022-12-07T03:46:50;4.60;;;2.80;;
4432;SDS011;2229;48.708;9.706;2022-12-07T03:49:26;4.37;;;2.67;;
4432;SDS011;2229;48.708;9.706;2022-12-07T03:52:00;6.07;;;3.30;;
4432;SDS011;2229;48.708;9.706;2022-12-07T03:54:36;6.80;;;3.17;;
4432;SDS011;2229;48.708;9.706;2022-12-07T03:57:08;6.57;;;3.03;;
4432;SDS011;2229;48.708;9.706;2022-12-07T03:59:37;5.23;;;2.83;;
4432;SDS011;2229;48.708;9.706;2022-12-07T04:02:07;6.30;;;2.67;;
4432;SDS011;2229;48.708;9.706;2022-12-07T04:04:37;7.13;;;3.03;;
4432;SDS011;2229;48.708;9.706;2022-12-07T04:07:05;6.53;;;3.10;;
4432;SDS011;2229;48.708;9.706;2022-12-07T04:09:32;5.77;;;3.43;;
4432;SDS011;2229;48.708;9.706;2022-12-07T04:11:59;6.40;;;3.83;;
4432;SDS011;2229;48.708;9.706;2022-12-07T04:14:26;7.87;;;3.90;;
4432;SDS011;2229;48.708;9.706;2022-12-07T04:16:54;8.00;;;3.60;;
4432;SDS011;2229;48.708;9.706;2022-12-07T04:19:25;7.80;;;3.63;;
4432;SDS011;2229;48.708;9.706;2022-12-07T04:22:00;8.60;;;3.70;;
4432;SDS011;2229;48.708;9.706;2022-12-07T04:24:28;6.87;;;3.73;;
4432;SDS011;2229;48.708;9.706;2022-12-07T04:26:55;6.37;;;4.27;;
4432;SDS011;2229;48.708;9.706;2022-12-07T04:29:23;7.73;;;4.40;;
4432;SDS011;2229;48.708;9.706;2022-12-07T04:31:50;8.20;;;3.27;;
4432;SDS011;2229;48.708;9.706;2022-12-07T04:34:18;17.20;;;6.47;;
4432;SDS011;2229;48.708;9.706;2022-12-07T04:36:47;6.30;;;3.40;;
4432;SDS011;2229;48.708;9.706;2022-12-07T04:39:17;5.87;;;2.53;;
4432;SDS011;2229;48.708;9.706;2022-12-07T04:41:46;9.83;;;3.30;;
4432;SDS011;2229;48.708;9.706;2022-12-07T04:44:13;7.50;;;3.20;;
4432;SDS011;2229;48.708;9.706;2022-12-07T04:46:41;6.70;;;3.30;;
4432;SDS011;2229;48.708;9.706;2022-12-07T04:49:09;7.10;;;3.47;;
4432;SDS011;2229;48.708;9.706;2022-12-07T04:51:36;7.50;;;3.23;;
4432;SDS011;2229;48.708;9.706;2022-12-07T04:54:05;13.60;;;3.67;;
4432;SDS011;2229;48.708;9.706;2022-12-07T04:56:32;8.67;;;3.70;;
4432;SDS011;2229;48.708;9.706;2022-12-07T04:59:01;6.70;;;3.33;;
4432;SDS011;2229;48.708;9.706;2022-12-07T05:01:29;8.47;;;4.10;;
4432;SDS011;2229;48.708;9.706;2022-12-07T05:03:56;7.20;;;2.93;;
4432;SDS011;2229;48.708;9.706;2022-12-07T05:06:24;8.37;;;3.70;;
4432;SDS011;2229;48.708;9.706;2022-12-07T05:08:51;6.97;;;4.13;;
4432;SDS011;2229;48.708;9.706;2022-12-07T05:11:19;5.73;;;3.73;;
4432;SDS011;2229;48.708;9.706;2022-12-07T05:14:06;5.10;;;2.97;;
4432;SDS011;2229;48.708;9.706;2022-12-07T05:16:36;5.17;;;2.90;;
4432;SDS011;2229;48.708;9.706;2022-12-07T05:19:03;11.60;;;4.50;;
4432;SDS011;2229;48.708;9.706;2022-12-07T05:21:31;11.17;;;4.20;;
4432;SDS011;2229;48.708;9.706;2022-12-07T05:23:58;11.33;;;5.27;;
4432;SDS011;2229;48.708;9.706;2022-12-07T05:26:26;11.87;;;4.67;;
4432;SDS011;2229;48.708;9.706;2022-12-07T05:28:54;8.13;;;3.50;;
4432;SDS011;2229;48.708;9.706;2022-12-07T05:31:22;9.50;;;4.63;;
4432;SDS011;2229;48.708;9.706;2022-12-07T05:33:50;10.80;;;5.07;;
4432;SDS011;2229;48.708;9.706;2022-12-07T05:36:18;10.57;;;4.33;;
4432;SDS011;2229;48.708;9.706;2022-12-07T05:38:45;6.90;;;3.77;;
4432;SDS011;2229;48.708;9.706;2022-12-07T05:41:13;8.57;;;3.90;;
4432;SDS011;2229;48.708;9.706;2022-12-07T05:43:57;7.17;;;3.23;;
4432;SDS011;2229;48.708;9.706;2022-12-07T05:46:24;8.53;;;4.00;;
4432;SDS011;2229;48.708;9.706;2022-12-07T05:48:52;8.73;;;3.83;;
4432;SDS011;2229;48.708;9.706;2022-12-07T05:51:19;10.13;;;4.53;;
4432;SDS011;2229;48.708;9.706;2022-12-07T05:53:47;7.73;;;3.60;;
4432;SDS011;2229;48.708;9.706;2022-12-07T05:56:14;9.53;;;5.00;;
4432;SDS011;2229;48.708;9.706;2022-12-07T05:58:41;7.73;;;3.80;;
4432;SDS011;2229;48.708;9.706;2022-12-07T06:01:33;9.83;;;4.93;;
4432;SDS011;2229;48.708;9.706;2022-12-07T06:04:00;12.83;;;4.90;;
4432;SDS011;2229;48.708;9.706;2022-12-07T06:06:27;5.87;;;3.17;;
4432;SDS011;2229;48.708;9.706;2022-12-07T06:08:54;8.10;;;4.00;;
4432;SDS011;2229;48.708;9.706;2022-12-07T06:11:23;8.50;;;3.97;;
4432;SDS011;2229;48.708;9.706;2022-12-07T06:14:07;7.23;;;3.60;;
4432;SDS011;2229;48.708;9.706;2022-12-07T06:16:36;7.67;;;4.93;;
4432;SDS011;2229;48.708;9.706;2022-12-07T06:19:04;15.37;;;3.40;;
4432;SDS011;2229;48.708;9.706;2022-12-07T06:21:48;7.40;;;3.33;;
4432;SDS011;2229;48.708;9.706;2022-12-07T06:24:15;5.97;;;3.27;;
4432;SDS011;2229;48.708;9.706;2022-12-07T06:26:45;7.50;;;3.10;;
4432;SDS011;2229;48.708;9.706;2022-12-07T06:29:14;7.27;;;2.90;;
4432;SDS011;2229;48.708;9.706;2022-12-07T06:31:44;6.37;;;3.70;;
4432;SDS011;2229;48.708;9.706;2022-12-07T06:34:12;8.57;;;4.90;;
4432;SDS011;2229;48.708;9.706;2022-12-07T06:36:41;6.17;;;3.63;;
4432;SDS011;2229;48.708;9.706;2022-12-07T06:39:08;4.90;;;2.90;;
4432;SDS011;2229;48.708;9.706;2022-12-07T06:41:36;10.93;;;3.97;;
4432;SDS011;2229;48.708;9.706;2022-12-07T06:44:03;7.87;;;3.20;;
4432;SDS011;2229;48.708;9.706;2022-12-07T06:46:31;10.60;;;3.33;;
4432;SDS011;2229;48.708;9.706;2022-12-07T06:49:02;9.30;;;3.17;;
4432;SDS011;2229;48.708;9.706;2022-12-07T06:51:29;5.43;;;2.80;;
4432;SDS011;2229;48.708;9.706;2022-12-07T06:53:57;7.63;;;3.57;;
4432;SDS011;2229;48.708;9.706;2022-12-07T06:56:24;5.53;;;3.80;;
4432;SDS011;2229;48.708;9.706;2022-12-07T06:58:57;6.30;;;2.67;;
4432;SDS011;2229;48.708;9.706;2022-12-07T07:01:24;7.40;;;3.37;;
4432;SDS011;2229;48.708;9.706;2022-12-07T07:03:51;12.40;;;4.93;;
4432;SDS011;2229;48.708;9.706;2022-12-07T07:06:20;5.87;;;3.37;;
4432;SDS011;2229;48.708;9.706;2022-12-07T07:08:50;5.80;;;3.37;;
4432;SDS011;2229;48.708;9.706;2022-12-07T07:11:30;9.87;;;4.07;;
4432;SDS011;2229;48.708;9.706;2022-12-07T07:13:57;6.40;;;2.93;;
4432;SDS011;2229;48.708;9.706;2022-12-07T07:16:27;18.13;;;5.57;;
4432;SDS011;2229;48.708;9.706;2022-12-07T07:18:55;8.67;;;4.33;;
4432;SDS011;2229;48.708;9.706;2022-12-07T07:21:25;10.03;;;4.50;;
4432;SDS011;2229;48.708;9.706;2022-12-07T07:23:52;11.43;;;4.67;;
4432;SDS011;2229;48.708;9.706;2022-12-07T07:26:19;15.93;;;3.63;;
4432;SDS011;2229;48.708;9.706;2022-12-07T07:28:46;10.60;;;3.37;;
4432;SDS011;2229;48.708;9.706;2022-12-07T07:31:13;11.10;;;3.80;;
4432;SDS011;2229;48.708;9.706;2022-12-07T07:33:41;26.33;;;6.40;;
4432;SDS011;2229;48.708;9.706;2022-12-07T07:36:12;10.00;;;4.63;;
4432;SDS011;2229;48.708;9.706;2022-12-07T07:38:40;17.87;;;5.10;;
4432;SDS011;2229;48.708;9.706;2022-12-07T07:41:08;17.63;;;5.27;;
4432;SDS011;2229;48.708;9.706;2022-12-07T07:43:35;12.87;;;4.60;;
4432;SDS011;2229;48.708;9.706;2022-12-07T07:46:02;9.00;;;3.20;;
4432;SDS011;2229;48.708;9.706;2022-12-07T07:48:30;18.10;;;4.27;;
4432;SDS011;2229;48.708;9.706;2022-12-07T07:50:57;13.43;;;3.97;;
4432;SDS011;2229;48.708;9.706;2022-12-07T07:53:24;12.77;;;4.00;;
4432;SDS011;2229;48.708;9.706;2022-12-07T07:55:53;33.07;;;5.70;;
4432;SDS011;2229;48.708;9.706;2022-12-07T07:58:20;10.57;;;4.30;;
4432;SDS011;2229;48.708;9.706;2022-12-07T08:00:47;28.97;;;6.17;;
4432;SDS011;2229;48.708;9.706;2022-12-07T08:03:15;44.33;;;6.07;;
4432;SDS011;2229;48.708;9.706;2022-12-07T08:05:42;9.87;;;4.50;;
4432;SDS011;2229;48.708;9.706;2022-12-07T08:08:09;14.17;;;4.73;;
4432;SDS011;2229;48.708;9.706;2022-12-07T08:10:36;13.87;;;5.20;;
4432;SDS011;2229;48.708;9.706;2022-12-07T08:13:05;6.17;;;3.07;;
4432;SDS011;2229;48.708;9.706;2022-12-07T08:15:39;8.07;;;3.63;;
4432;SDS011;2229;48.708;9.706;2022-12-07T08:18:07;8.50;;;4.17;;
4432;SDS011;2229;48.708;9.706;2022-12-07T08:20:35;6.43;;;3.00;;
4432;SDS011;2229;48.708;9.706;2022-12-07T08:23:04;11.27;;;4.03;;
4432;SDS011;2229;48.708;9.706;2022-12-07T08:25:33;10.20;;;3.63;;
4432;SDS011;2229;48.708;9.706;2022-12-07T08:28:05;6.33;;;2.93;;
4432;SDS011;2229;48.708;9.706;2022-12-07T08:30:33;21.90;;;4.13;;
4432;SDS011;2229;48.708;9.706;2022-12-07T08:33:05;8.70;;;4.27;;
4432;SDS011;2229;48.708;9.706;2022-12-07T08:35:33;6.40;;;3.70;;
4432;SDS011;2229;48.708;9.706;2022-12-07T08:38:01;9.37;;;3.97;;
4432;SDS011;2229;48.708;9.706;2022-12-07T08:40:29;10.67;;;4.47;;
4432;SDS011;2229;48.708;9.706;2022-12-07T08:42:58;9.40;;;3.70;;
4432;SDS011;2229;48.708;9.706;2022-12-07T08:45:27;9.73;;;4.97;;
4432;SDS011;2229;48.708;9.706;2022-12-07T08:47:58;9.53;;;3.90;;
4432;SDS011;2229;48.708;9.706;2022-12-07T08:50:32;11.87;;;4.40;;
4432;SDS011;2229;48.708;9.706;2022-12-07T08:53:00;9.20;;;4.23;;
4432;SDS011;2229;48.708;9.706;2022-12-07T08:55:29;9.20;;;4.17;;
4432;SDS011;2229;48.708;9.706;2022-12-07T08:57:58;6.10;;;3.37;;
4432;SDS011;2229;48.708;9.706;2022-12-07T09:00:27;10.30;;;4.60;;
4432;SDS011;2229;48.708;9.706;2022-12-07T09:02:55;6.17;;;4.10;;
4432;SDS011;2229;48.708;9.706;2022-12-07T09:05:22;8.40;;;4.10;;
4432;SDS011;2229;48.708;9.706;2022-12-07T09:07:57;10.10;;;5.07;;
4432;SDS011;2229;48.708;9.706;2022-12-07T09:10:27;10.70;;;4.13;;
4432;SDS011;2229;48.708;9.706;2022-12-07T09:12:54;9.67;;;3.93;;
4432;SDS011;2229;48.708;9.706;2022-12-07T09:15:26;6.23;;;3.70;;
4432;SDS011;2229;48.708;9.706;2022-12-07T09:17:54;7.43;;;3.90;;
4432;SDS011;2229;48.708;9.706;2022-12-07T09:20:22;8.63;;;4.57;;
4432;SDS011;2229;48.708;9.706;2022-12-07T09:22:49;4.80;;;3.37;;
4432;SDS011;2229;48.708;9.706;2022-12-07T09:25:17;6.87;;;3.67;;
4432;SDS011;2229;48.708;9.706;2022-12-07T09:27:44;5.23;;;3.30;;
4432;SDS011;2229;48.708;9.706;2022-12-07T09:30:11;7.90;;;3.53;;
4432;SDS011;2229;48.708;9.706;2022-12-07T09:32:40;6.53;;;3.30;;
4432;SDS011;2229;48.708;9.706;2022-12-07T09:35:07;6.40;;;3.23;;
4432;SDS011;2229;48.708;9.706;2022-12-07T09:37:35;5.53;;;3.37;;
4432;SDS011;2229;48.708;9.706;2022-12-07T09:40:02;5.30;;;2.83;;
4432;SDS011;2229;48.708;9.706;2022-12-07T09:42:41;8.50;;;3.43;;
4432;SDS011;2229;48.708;9.706;2022-12-07T09:45:11;8.40;;;3.73;;
4432;SDS011;2229;48.708;9.706;2022-12-07T09:47:42;7.47;;;2.70;;
4432;SDS011;2229;48.708;9.706;2022-12-07T09:50:14;7.10;;;3.80;;
4432;SDS011;2229;48.708;9.706;2022-12-07T09:52:46;6.90;;;3.10;;
4432;SDS011;2229;48.708;9.706;2022-12-07T09:55:16;9.27;;;3.97;;
4432;SDS011;2229;48.708;9.706;2022-12-07T09:57:46;8.70;;;3.03;;
4432;SDS011;2229;48.708;9.706;2022-12-07T10:00:15;11.03;;;3.67;;
4432;SDS011;2229;48.708;9.706;2022-12-07T10:02:49;4.40;;;2.73;;
4432;SDS011;2229;48.708;9.706;2022-12-07T10:05:21;4.40;;;2.83;;
4432;SDS011;2229;48.708;9.706;2022-12-07T10:07:53;5.93;;;2.70;;
4432;SDS011;2229;48.708;9.706;2022-12-07T10:10:22;9.33;;;5.00;;
4432;SDS011;2229;48.708;9.706;2022-12-07T10:12:55;4.07;;;2.30;;
4432;SDS011;2229;48.708;9.706;2022-12-07T10:15:42;3.87;;;2.57;;
4432;SDS011;2229;48.708;9.706;2022-12-07T10:18:27;6.63;;;2.83;;
4432;SDS011;2229;48.708;9.706;2022-12-07T10:21:08;6.50;;;2.93;;
4432;SDS011;2229;48.708;9.706;2022-12-07T10:23:39;6.80;;;2.47;;
4432;SDS011;2229;48.708;9.706;2022-12-07T10:26:19;3.80;;;2.73;;
4432;SDS011;2229;48.708;9.706;2022-12-07T10:28:52;6.43;;;3.40;;
4432;SDS011;2229;48.708;9.706;2022-12-07T10:31:21;6.07;;;3.10;;
4432;SDS011;2229;48.708;9.706;2022-12-07T10:33:52;9.87;;;2.93;;
4432;SDS011;2229;48.708;9.706;2022-12-07T10:36:22;7.17;;;2.87;;
4432;SDS011;2229;48.708;9.706;2022-12-07T10:38:52;4.23;;;2.37;;
4432;SDS011;2229;48.708;9.706;2022-12-07T10:41:24;5.77;;;2.33;;
4432;SDS011;2229;48.708;9.706;2022-12-07T10:43:52;5.33;;;2.80;;
4432;SDS011;2229;48.708;9.706;2022-12-07T10:46:25;5.07;;;2.80;;
4432;SDS011;2229;48.708;9.706;2022-12-07T10:49:16;4.30;;;3.30;;
4432;SDS011;2229;48.708;9.706;2022-12-07T10:52:08;4.70;;;2.00;;
4432;SDS011;2229;48.708;9.706;2022-12-07T10:54:46;13.83;;;3.97;;
4432;SDS011;2229;48.708;9.706;2022-12-07T10:57:27;7.33;;;2.87;;
4432;SDS011;2229;48.708;9.706;2022-12-07T11:00:08;3.90;;;2.10;;
4432;SDS011;2229;48.708;9.706;2022-12-07T11:02:52;7.20;;;2.80;;
4432;SDS011;2229;48.708;9.706;2022-12-07T11:06:16;5.37;;;3.50;;
4432;SDS011;2229;48.708;9.706;2022-12-07T11:08:54;4.93;;;2.10;;
4432;SDS011;2229;48.708;9.706;2022-12-07T11:11:31;3.23;;;2.20;;
4432;SDS011;2229;48.708;9.706;2022-12-07T11:14:05;5.40;;;2.47;;
4432;SDS011;2229;48.708;9.706;2022-12-07T11:17:03;2.87;;;1.93;;
4432;SDS011;2229;48.708;9.706;2022-12-07T11:19:46;4.10;;;2.30;;
4432;SDS011;2229;48.708;9.706;2022-12-07T11:22:26;5.93;;;2.30;;
4432;SDS011;2229;48.708;9.706;2022-12-07T11:25:02;7.90;;;1.97;;
4432;SDS011;2229;48.708;9.706;2022-12-07T11:27:43;4.10;;;2.03;;
4432;SDS011;2229;48.708;9.706;2022-12-07T11:30:16;6.50;;;3.00;;
4432;SDS011;2229;48.708;9.706;2022-12-07T11:32:57;3.53;;;1.90;;
4432;SDS011;2229;48.708;9.706;2022-12-07T11:35:40;5.30;;;2.43;;
4432;SDS011;2229;48.708;9.706;2022-12-07T11:38:22;5.27;;;2.47;;
4432;SDS011;2229;48.708;9.706;2022-12-07T11:40:53;5.07;;;2.20;;
4432;SDS011;2229;48.708;9.706;2022-12-07T11:43:39;5.07;;;2.63;;
4432;SDS011;2229;48.708;9.706;2022-12-07T11:46:17;4.73;;;3.13;;
4432;SDS011;2229;48.708;9.706;2022-12-07T11:48:45;9.00;;;2.40;;
4432;SDS011;2229;48.708;9.706;2022-12-07T11:51:17;5.40;;;2.57;;
4432;SDS011;2229;48.708;9.706;2022-12-07T11:53:51;7.13;;;2.97;;
4432;SDS011;2229;48.708;9.706;2022-12-07T11:56:21;3.93;;;1.80;;
4432;SDS011;2229;48.708;9.706;2022-12-07T11:58:53;4.50;;;1.93;;
4432;SDS011;2229;48.708;9.706;2022-12-07T16:39:22;6.50;;;2.87;;
4432;SDS011;2229;48.708;9.706;2022-12-07T16:41:50;6.10;;;2.80;;
4432;SDS011;2229;48.708;9.706;2022-12-07T16:44:18;4.37;;;2.30;;
4432;SDS011;2229;48.708;9.706;2022-12-07T16:46:45;5.60;;;2.83;;
4432;SDS011;2229;48.708;9.706;2022-12-07T16:49:12;9.60;;;4.37;;
4432;SDS011;2229;48.708;9.706;2022-12-07T16:51:41;11.57;;;3.10;;
4432;SDS011;2229;48.708;9.706;2022-12-07T16:54:09;4.80;;;2.97;;
4432;SDS011;2229;48.708;9.706;2022-12-07T16:56:38;6.10;;;2.13;;
4432;SDS011;2229;48.708;9.706;2022-12-07T16:59:06;5.03;;;2.80;;
4432;SDS011;2229;48.708;9.706;2022-12-07T17:01:34;4.30;;;2.30;;
4432;SDS011;2229;48.708;9.706;2022-12-07T17:04:01;4.80;;;2.27;;
4432;SDS011;2229;48.708;9.706;2022-12-07T17:06:29;3.13;;;1.70;;
4432;SDS011;2229;48.708;9.706;2022-12-07T17:08:58;6.27;;;2.60;;
4432;SDS011;2229;48.708;9.706;2022-12-07T17:11:26;6.40;;;3.40;;
4432;SDS011;2229;48.708;9.706;2022-12-07T17:13:57;6.77;;;3.03;;
4432;SDS011;2229;48.708;9.706;2022-12-07T17:16:42;5.37;;;3.00;;
4432;SDS011;2229;48.708;9.706;2022-12-07T17:19:10;5.30;;;2.90;;
4432;SDS011;2229;48.708;9.706;2022-12-07T17:21:40;10.03;;;3.10;;
4432;SDS011;2229;48.708;9.706;2022-12-07T17:24:08;6.27;;;2.60;;
4432;SDS011;2229;48.708;9.706;2022-12-07T17:26:37;11.00;;;2.90;;
4432;SDS011;2229;48.708;9.706;2022-12-07T17:29:07;8.73;;;4.83;;
4432;SDS011;2229;48.708;9.706;2022-12-07T17:31:36;6.70;;;3.17;;
4432;SDS011;2229;48.708;9.706;2022-12-07T17:34:04;5.40;;;2.70;;
4432;SDS011;2229;48.708;9.706;2022-12-07T17:36:36;10.87;;;4.97;;
4432;SDS011;2229;48.708;9.706;2022-12-07T17:39:06;7.20;;;3.80;;
4432;SDS011;2229;48.708;9.706;2022-12-07T17:41:34;20.47;;;8.00;;
4432;SDS011;2229;48.708;9.706;2022-12-07T17:44:21;34.17;;;12.03;;
4432;SDS011;2229;48.708;9.706;2022-12-07T17:46:49;36.17;;;16.50;;
4432;SDS011;2229;48.708;9.706;2022-12-07T17:49:19;32.57;;;12.20;;
4432;SDS011;2229;48.708;9.706;2022-12-07T17:51:47;16.90;;;8.90;;
4432;SDS011;2229;48.708;9.706;2022-12-07T17:54:32;31.70;;;8.10;;
4432;SDS011;2229;48.708;9.706;2022-12-07T17:56:59;23.80;;;6.60;;
4432;SDS011;2229;48.708;9.706;2022-12-07T17:59:28;10.40;;;4.30;;
4432;SDS011;2229;48.708;9.706;2022-12-07T18:01:55;6.87;;;2.70;;
4432;SDS011;2229;48.708;9.706;2022-12-07T18:04:22;6.77;;;3.90;;
4432;SDS011;2229;48.708;9.706;2022-12-07T18:06:49;8.20;;;5.33;;
4432;SDS011;2229;48.708;9.706;2022-12-07T18:09:17;7.70;;;3.53;;
4432;SDS011;2229;48.708;9.706;2022-12-07T18:11:46;6.63;;;3.50;;
4432;SDS011;2229;48.708;9.706;2022-12-07T18:14:13;7.97;;;4.30;;
4432;SDS011;2229;48.708;9.706;2022-12-07T18:16:42;4.43;;;2.83;;
4432;SDS011;2229;48.708;9.706;2022-12-07T18:19:10;8.97;;;4.20;;
4432;SDS011;2229;48.708;9.706;2022-12-07T18:21:39;6.40;;;3.67;;
4432;SDS011;2229;48.708;9.706;2022-12-07T18:24:08;6.30;;;3.50;;
4432;SDS011;2229;48.708;9.706;2022-12-07T18:26:36;6.97;;;3.60;;
4432;SDS011;2229;48.708;9.706;2022-12-07T18:29:04;6.30;;;3.93;;
4432;SDS011;2229;48.708;9.706;2022-12-07T18:31:32;8.80;;;3.23;;
4432;SDS011;2229;48.708;9.706;2022-12-07T18:34:01;8.93;;;4.23;;
4432;SDS011;2229;48.708;9.706;2022-12-07T18:36:32;9.13;;;4.43;;
4432;SDS011;2229;48.708;9.706;2022-12-07T18:39:02;7.70;;;4.50;;
4432;SDS011;2229;48.708;9.706;2022-12-07T18:41:30;10.60;;;3.60;;
4432;SDS011;2229;48.708;9.706;2022-12-07T18:43:57;7.53;;;4.57;;
4432;SDS011;2229;48.708;9.706;2022-12-07T18:46:24;9.53;;;4.10;;
4432;SDS011;2229;48.708;9.706;2022-12-07T18:48:51;7.40;;;3.40;;
4432;SDS011;2229;48.708;9.706;2022-12-07T18:51:22;9.67;;;5.43;;
4432;SDS011;2229;48.708;9.706;2022-12-07T18:53:50;7.63;;;3.43;;
4432;SDS011;2229;48.708;9.706;2022-12-07T18:56:18;7.80;;;3.30;;
4432;SDS011;2229;48.708;9.706;2022-12-07T18:58:47;7.37;;;3.10;;
4432;SDS011;2229;48.708;9.706;2022-12-07T19:01:33;9.53;;;3.03;;
4432;SDS011;2229;48.708;9.706;2022-12-07T19:04:00;6.83;;;3.53;;
4432;SDS011;2229;48.708;9.706;2022-12-07T19:06:29;9.03;;;3.60;;
4432;SDS011;2229;48.708;9.706;2022-12-07T19:08:57;7.97;;;3.83;;
4432;SDS011;2229;48.708;9.706;2022-12-07T19:11:25;8.13;;;4.77;;
4432;SDS011;2229;48.708;9.706;2022-12-07T19:14:11;10.10;;;4.07;;
4432;SDS011;2229;48.708;9.706;2022-12-07T19:16:40;6.70;;;4.37;;
4432;SDS011;2229;48.708;9.706;2022-12-07T19:19:08;5.10;;;3.17;;
4432;SDS011;2229;48.708;9.706;2022-12-07T19:21:37;7.30;;;4.13;;
4432;SDS011;2229;48.708;9.706;2022-12-07T19:24:04;5.97;;;3.53;;
4432;SDS011;2229;48.708;9.706;2022-12-07T19:26:32;6.13;;;3.37;;
4432;SDS011;2229;48.708;9.706;2022-12-07T19:28:59;5.80;;;3.23;;
4432;SDS011;2229;48.708;9.706;2022-12-07T19:31:26;6.97;;;3.00;;
4432;SDS011;2229;48.708;9.706;2022-12-07T19:33:53;60.97;;;10.77;;
4432;SDS011;2229;48.708;9.706;2022-12-07T19:36:20;14.50;;;4.77;;
4432;SDS011;2229;48.708;9.706;2022-12-07T19:38:49;8.20;;;3.93;;
4432;SDS011;2229;48.708;9.706;2022-12-07T19:41:17;7.83;;;3.10;;
4432;SDS011;2229;48.708;9.706;2022-12-07T19:43:59;8.10;;;4.00;;
4432;SDS011;2229;48.708;9.706;2022-12-07T19:46:27;6.63;;;3.40;;
4432;SDS011;2229;48.708;9.706;2022-12-07T19:48:55;12.20;;;5.07;;
4432;SDS011;2229;48.708;9.706;2022-12-07T19:51:22;9.00;;;3.90;;
4432;SDS011;2229;48.708;9.706;2022-12-07T19:53:51;6.73;;;4.20;;
4432;SDS011;2229;48.708;9.706;2022-12-07T19:56:18;5.30;;;3.07;;
4432;SDS011;2229;48.708;9.706;2022-12-07T19:58:47;11.57;;;4.40;;
4432;SDS011;2229;48.708;9.706;2022-12-07T20:01:14;4.33;;;2.07;;
4432;SDS011;2229;48.708;9.706;2022-12-07T20:03:42;8.03;;;4.10;;
4432;SDS011;2229;48.708;9.706;2022-12-07T20:06:09;8.30;;;3.03;;
4432;SDS011;2229;48.708;9.706;2022-12-07T20:08:38;7.30;;;3.30;;
4432;SDS011;2229;48.708;9.706;2022-12-07T20:11:07;9.50;;;5.60;;
4432;SDS011;2229;48.708;9.706;2022-12-07T20:13:52;5.20;;;3.70;;
4432;SDS011;2229;48.708;9.706;2022-12-07T20:16:20;13.63;;;4.57;;
4432;SDS011;2229;48.708;9.706;2022-12-07T20:18:47;11.20;;;5.77;;